sensor_id;sensor_type;location;lat;lon;timestamp;pressure;altitude;pressure_sealevel;temperature;humidity
57801;BME280;43627;42.728;23.256;2022-12-18T00:03:46;95773.84;;;4.30;100.00
57801;BME280;43627;42.728;23.256;2022-12-18T00:06:13;95780.50;;;4.22;100.00
57801;BME280;43627;42.728;23.256;2022-12-18T00:08:41;95781.31;;;4.19;100.00
57801;BME280;43627;42.728;23.256;2022-12-18T00:11:12;95772.03;;;4.16;100.00
57801;BME280;43627;42.728;23.256;2022-12-18T00:13:39;95779.78;;;4.14;100.00
57801;BME280;43627;42.728;23.256;2022-12-18T00:16:11;95779.06;;;4.07;100.00
57801;BME280;43627;42.728;23.256;2022-12-18T00:18:38;95771.06;;;3.96;100.00
57801;BME280;43627;42.728;23.256;2022-12-18T00:21:07;95797.59;;;4.05;100.00
57801;BME280;43627;42.728;23.256;2022-12-18T00:23:37;95800.75;;;3.99;100.00
57801;BME280;43627;42.728;23.256;2022-12-18T00:26:07;95765.91;;;3.71;100.00
57801;BME280;43627;42.728;23.256;2022-12-18T00:28:34;95793.16;;;3.84;100.00
57801;BME280;43627;42.728;23.256;2022-12-18T00:31:06;95796.94;;;3.93;100.00
57801;BME280;43627;42.728;23.256;2022-12-18T00:33:34;95797.78;;;3.83;100.00
57801;BME280;43627;42.728;23.256;2022-12-18T00:36:08;95804.66;;;3.88;100.00
57801;BME280;43627;42.728;23.256;2022-12-18T00:38:35;95807.03;;;3.82;100.00
57801;BME280;43627;42.728;23.256;2022-12-18T00:41:04;95811.63;;;3.85;100.00
57801;BME280;43627;42.728;23.256;2022-12-18T00:43:35;95810.91;;;3.81;100.00
57801;BME280;43627;42.728;23.256;2022-12-18T00:46:03;95796.69;;;3.73;100.00
57801;BME280;43627;42.728;23.256;2022-12-18T00:48:30;95815.56;;;3.77;100.00
57801;BME280;43627;42.728;23.256;2022-12-18T00:50:57;95786.81;;;3.56;100.00
57801;BME280;43627;42.728;23.256;2022-12-18T00:53:24;95809.84;;;3.68;100.00
57801;BME280;43627;42.728;23.256;2022-12-18T00:55:50;95807.25;;;3.54;100.00
57801;BME280;43627;42.728;23.256;2022-12-18T00:58:17;95822.22;;;3.58;100.00
57801;BME280;43627;42.728;23.256;2022-12-18T01:00:44;95821.09;;;3.56;100.00
57801;BME280;43627;42.728;23.256;2022-12-18T01:03:13;95802.69;;;3.43;100.00
57801;BME280;43627;42.728;23.256;2022-12-18T01:05:41;95831.09;;;3.59;100.00
57801;BME280;43627;42.728;23.256;2022-12-18T01:08:08;95838.06;;;3.53;100.00
57801;BME280;43627;42.728;23.256;2022-12-18T01:10:35;95835.03;;;3.43;100.00
57801;BME280;43627;42.728;23.256;2022-12-18T01:13:02;95835.38;;;3.49;100.00
57801;BME280;43627;42.728;23.256;2022-12-18T01:15:28;95838.09;;;3.46;100.00
57801;BME280;43627;42.728;23.256;2022-12-18T01:17:55;95835.44;;;3.38;100.00
57801;BME280;43627;42.728;23.256;2022-12-18T01:20:22;95842.75;;;3.38;100.00
57801;BME280;43627;42.728;23.256;2022-12-18T01:22:48;95837.81;;;3.26;100.00
57801;BME280;43627;42.728;23.256;2022-12-18T01:25:15;95848.94;;;3.35;100.00
57801;BME280;43627;42.728;23.256;2022-12-18T01:27:42;95843.97;;;3.33;100.00
57801;BME280;43627;42.728;23.256;2022-12-18T01:30:09;95830.56;;;3.15;100.00
57801;BME280;43627;42.728;23.256;2022-12-18T01:32:36;95847.47;;;3.23;100.00
57801;BME280;43627;42.728;23.256;2022-12-18T01:35:04;95858.59;;;3.29;100.00
57801;BME280;43627;42.728;23.256;2022-12-18T01:37:31;95850.59;;;3.11;100.00
57801;BME280;43627;42.728;23.256;2022-12-18T01:39:58;95855.94;;;3.18;100.00
57801;BME280;43627;42.728;23.256;2022-12-18T01:42:25;95869.78;;;3.20;100.00
57801;BME280;43627;42.728;23.256;2022-12-18T01:47:47;95865.53;;;3.26;100.00
57801;BME280;43627;42.728;23.256;2022-12-18T01:50:36;95850.59;;;3.14;100.00
57801;BME280;43627;42.728;23.256;2022-12-18T01:55:50;95862.13;;;3.15;100.00
57801;BME280;43627;42.728;23.256;2022-12-18T01:58:19;95851.38;;;3.08;100.00
57801;BME280;43627;42.728;23.256;2022-12-18T02:00:46;95875.56;;;3.22;100.00
57801;BME280;43627;42.728;23.256;2022-12-18T02:03:14;95867.88;;;3.21;100.00
57801;BME280;43627;42.728;23.256;2022-12-18T02:05:47;95869.78;;;3.27;100.00
57801;BME280;43627;42.728;23.256;2022-12-18T02:08:24;95872.88;;;3.26;100.00
57801;BME280;43627;42.728;23.256;2022-12-18T02:11:08;95870.97;;;3.12;100.00
57801;BME280;43627;42.728;23.256;2022-12-18T02:16:41;95866.03;;;3.03;100.00
57801;BME280;43627;42.728;23.256;2022-12-18T02:27:58;95892.53;;;3.15;100.00
57801;BME280;43627;42.728;23.256;2022-12-18T02:30:29;95887.97;;;3.05;100.00
57801;BME280;43627;42.728;23.256;2022-12-18T02:32:58;95898.31;;;3.18;100.00
57801;BME280;43627;42.728;23.256;2022-12-18T02:35:29;95894.88;;;3.13;100.00
57801;BME280;43627;42.728;23.256;2022-12-18T02:37:57;95908.34;;;3.03;100.00
57801;BME280;43627;42.728;23.256;2022-12-18T02:40:27;95897.22;;;2.94;100.00
57801;BME280;43627;42.728;23.256;2022-12-18T02:42:54;95900.69;;;2.98;100.00
57801;BME280;43627;42.728;23.256;2022-12-18T02:45:21;95905.66;;;2.99;100.00
57801;BME280;43627;42.728;23.256;2022-12-18T02:47:49;95926.84;;;2.94;100.00
57801;BME280;43627;42.728;23.256;2022-12-18T02:50:29;95911.47;;;2.94;100.00
57801;BME280;43627;42.728;23.256;2022-12-18T02:53:24;95918.38;;;2.92;100.00
57801;BME280;43627;42.728;23.256;2022-12-18T03:04:04;95899.19;;;2.75;100.00
57801;BME280;43627;42.728;23.256;2022-12-18T03:06:44;95920.31;;;2.91;100.00
57801;BME280;43627;42.728;23.256;2022-12-18T03:09:37;95906.47;;;2.82;100.00
57801;BME280;43627;42.728;23.256;2022-12-18T03:12:20;95888.44;;;2.75;100.00
57801;BME280;43627;42.728;23.256;2022-12-18T03:14:56;95913.03;;;2.81;100.00
57801;BME280;43627;42.728;23.256;2022-12-18T03:17:26;95929.19;;;2.84;100.00
57801;BME280;43627;42.728;23.256;2022-12-18T03:19:56;95923.03;;;2.80;100.00
57801;BME280;43627;42.728;23.256;2022-12-18T03:22:27;95924.56;;;2.81;100.00
57801;BME280;43627;42.728;23.256;2022-12-18T03:24:56;95906.88;;;2.73;100.00
57801;BME280;43627;42.728;23.256;2022-12-18T03:27:25;95921.09;;;2.92;100.00
57801;BME280;43627;42.728;23.256;2022-12-18T03:30:00;95933.81;;;2.88;100.00
57801;BME280;43627;42.728;23.256;2022-12-18T03:32:39;95943.41;;;2.96;100.00
57801;BME280;43627;42.728;23.256;2022-12-18T03:35:09;95947.28;;;2.88;100.00
57801;BME280;43627;42.728;23.256;2022-12-18T03:37:38;95931.50;;;2.79;100.00
57801;BME280;43627;42.728;23.256;2022-12-18T03:40:05;95954.97;;;2.85;100.00
57801;BME280;43627;42.728;23.256;2022-12-18T03:42:59;95926.88;;;2.72;100.00
57801;BME280;43627;42.728;23.256;2022-12-18T03:45:36;95952.28;;;2.71;100.00
57801;BME280;43627;42.728;23.256;2022-12-18T03:48:16;95958.84;;;2.67;100.00
57801;BME280;43627;42.728;23.256;2022-12-18T03:50:49;95966.91;;;2.63;100.00
57801;BME280;43627;42.728;23.256;2022-12-18T03:53:49;95964.22;;;2.67;100.00
57801;BME280;43627;42.728;23.256;2022-12-18T03:56:21;95967.66;;;2.46;100.00
57801;BME280;43627;42.728;23.256;2022-12-18T03:58:50;95946.91;;;2.43;100.00
57801;BME280;43627;42.728;23.256;2022-12-18T04:01:23;95949.22;;;2.37;100.00
57801;BME280;43627;42.728;23.256;2022-12-18T04:03:53;95978.44;;;2.53;100.00
57801;BME280;43627;42.728;23.256;2022-12-18T04:06:21;95940.00;;;2.35;100.00
57801;BME280;43627;42.728;23.256;2022-12-18T04:08:48;95956.94;;;2.39;100.00
57801;BME280;43627;42.728;23.256;2022-12-18T04:11:15;95949.63;;;2.39;100.00
57801;BME280;43627;42.728;23.256;2022-12-18T04:13:42;95966.53;;;2.43;100.00
57801;BME280;43627;42.728;23.256;2022-12-18T04:16:09;95981.53;;;2.37;100.00
57801;BME280;43627;42.728;23.256;2022-12-18T04:18:36;95983.44;;;2.40;100.00
57801;BME280;43627;42.728;23.256;2022-12-18T04:21:03;95967.28;;;2.19;100.00
57801;BME280;43627;42.728;23.256;2022-12-18T04:23:30;95988.81;;;2.22;100.00
57801;BME280;43627;42.728;23.256;2022-12-18T04:25:57;96007.28;;;2.38;100.00
57801;BME280;43627;42.728;23.256;2022-12-18T04:28:23;96018.41;;;2.33;100.00
57801;BME280;43627;42.728;23.256;2022-12-18T04:30:50;96006.13;;;2.36;100.00
57801;BME280;43627;42.728;23.256;2022-12-18T04:33:18;96011.13;;;2.41;100.00
57801;BME280;43627;42.728;23.256;2022-12-18T04:35:44;96014.59;;;2.41;100.00
57801;BME280;43627;42.728;23.256;2022-12-18T04:38:11;96016.13;;;2.28;100.00
57801;BME280;43627;42.728;23.256;2022-12-18T04:40:38;96023.81;;;2.33;100.00
57801;BME280;43627;42.728;23.256;2022-12-18T04:43:07;96028.03;;;2.31;100.00
57801;BME280;43627;42.728;23.256;2022-12-18T04:45:34;96028.03;;;2.31;100.00
57801;BME280;43627;42.728;23.256;2022-12-18T04:48:02;96030.69;;;2.27;100.00
57801;BME280;43627;42.728;23.256;2022-12-18T04:50:29;96034.19;;;2.27;100.00
57801;BME280;43627;42.728;23.256;2022-12-18T04:52:56;96034.97;;;2.32;100.00
57801;BME280;43627;42.728;23.256;2022-12-18T04:55:26;96038.41;;;2.25;100.00
57801;BME280;43627;42.728;23.256;2022-12-18T04:57:53;96043.00;;;2.24;100.00
57801;BME280;43627;42.728;23.256;2022-12-18T05:00:20;96041.09;;;2.21;100.00
57801;BME280;43627;42.728;23.256;2022-12-18T05:02:47;96047.63;;;2.20;100.00
57801;BME280;43627;42.728;23.256;2022-12-18T05:05:14;96025.31;;;2.09;100.00
57801;BME280;43627;42.728;23.256;2022-12-18T05:07:41;96055.66;;;2.17;100.00
57801;BME280;43627;42.728;23.256;2022-12-18T05:10:08;96060.63;;;2.04;100.00
57801;BME280;43627;42.728;23.256;2022-12-18T05:12:35;96050.25;;;2.06;100.00
57801;BME280;43627;42.728;23.256;2022-12-18T05:15:22;96060.66;;;2.15;100.00
57801;BME280;43627;42.728;23.256;2022-12-18T05:17:49;96046.78;;;1.98;100.00
57801;BME280;43627;42.728;23.256;2022-12-18T05:20:15;96070.66;;;2.18;100.00
57801;BME280;43627;42.728;23.256;2022-12-18T05:22:42;96079.94;;;2.27;100.00
57801;BME280;43627;42.728;23.256;2022-12-18T05:25:09;96094.13;;;2.21;100.00
57801;BME280;43627;42.728;23.256;2022-12-18T05:27:35;96088.75;;;2.21;100.00
57801;BME280;43627;42.728;23.256;2022-12-18T05:30:02;96091.44;;;2.24;100.00
57801;BME280;43627;42.728;23.256;2022-12-18T05:32:29;96099.13;;;2.19;100.00
57801;BME280;43627;42.728;23.256;2022-12-18T05:34:56;96093.72;;;2.15;100.00
57801;BME280;43627;42.728;23.256;2022-12-18T05:37:23;96109.91;;;2.19;100.00
57801;BME280;43627;42.728;23.256;2022-12-18T05:39:50;96065.59;;;1.95;100.00
57801;BME280;43627;42.728;23.256;2022-12-18T05:42:17;96112.16;;;2.17;100.00
57801;BME280;43627;42.728;23.256;2022-12-18T05:44:43;96117.16;;;2.11;100.00
57801;BME280;43627;42.728;23.256;2022-12-18T05:47:10;96117.94;;;2.15;100.00
57801;BME280;43627;42.728;23.256;2022-12-18T05:49:37;96092.91;;;2.04;100.00
57801;BME280;43627;42.728;23.256;2022-12-18T05:52:04;96090.19;;;1.97;100.00
57801;BME280;43627;42.728;23.256;2022-12-18T05:54:31;96115.59;;;1.99;100.00
57801;BME280;43627;42.728;23.256;2022-12-18T05:56:58;96120.97;;;1.99;100.00
57801;BME280;43627;42.728;23.256;2022-12-18T05:59:24;96125.19;;;2.04;100.00
57801;BME280;43627;42.728;23.256;2022-12-18T06:01:51;96106.31;;;1.97;100.00
57801;BME280;43627;42.728;23.256;2022-12-18T06:04:18;96141.00;;;2.09;100.00
57801;BME280;43627;42.728;23.256;2022-12-18T06:06:45;96149.81;;;2.06;100.00
57801;BME280;43627;42.728;23.256;2022-12-18T06:09:12;96159.03;;;2.05;100.00
57801;BME280;43627;42.728;23.256;2022-12-18T06:11:38;96155.94;;;2.07;100.00
57801;BME280;43627;42.728;23.256;2022-12-18T06:14:06;96152.09;;;2.08;100.00
57801;BME280;43627;42.728;23.256;2022-12-18T06:16:33;96144.03;;;2.04;100.00
57801;BME280;43627;42.728;23.256;2022-12-18T06:19:01;96155.22;;;2.10;100.00
57801;BME280;43627;42.728;23.256;2022-12-18T06:21:29;96157.88;;;2.06;100.00
57801;BME280;43627;42.728;23.256;2022-12-18T06:23:57;96164.41;;;2.02;100.00
57801;BME280;43627;42.728;23.256;2022-12-18T06:26:24;96165.94;;;1.99;100.00
57801;BME280;43627;42.728;23.256;2022-12-18T06:28:53;96128.13;;;1.78;100.00
57801;BME280;43627;42.728;23.256;2022-12-18T06:31:20;96157.84;;;1.99;100.00
57801;BME280;43627;42.728;23.256;2022-12-18T06:33:47;96123.13;;;1.76;100.00
57801;BME280;43627;42.728;23.256;2022-12-18T06:36:15;96159.34;;;1.93;100.00
57801;BME280;43627;42.728;23.256;2022-12-18T06:38:43;96163.56;;;1.94;100.00
57801;BME280;43627;42.728;23.256;2022-12-18T06:41:15;96163.63;;;2.01;100.00
57801;BME280;43627;42.728;23.256;2022-12-18T06:43:43;96160.53;;;1.99;100.00
57801;BME280;43627;42.728;23.256;2022-12-18T06:46:10;96179.38;;;2.03;100.00
57801;BME280;43627;42.728;23.256;2022-12-18T06:48:38;96181.31;;;2.02;100.00
57801;BME280;43627;42.728;23.256;2022-12-18T06:51:05;96192.03;;;1.98;100.00
57801;BME280;43627;42.728;23.256;2022-12-18T06:53:32;96184.34;;;1.97;100.00
57801;BME280;43627;42.728;23.256;2022-12-18T06:56:04;96187.44;;;2.03;100.00
57801;BME280;43627;42.728;23.256;2022-12-18T06:58:35;96169.28;;;1.82;100.00
57801;BME280;43627;42.728;23.256;2022-12-18T07:01:05;96179.72;;;1.94;100.00
57801;BME280;43627;42.728;23.256;2022-12-18T07:03:32;96178.56;;;1.91;100.00
57801;BME280;43627;42.728;23.256;2022-12-18T07:05:59;96202.78;;;1.95;100.00
57801;BME280;43627;42.728;23.256;2022-12-18T07:08:25;96181.63;;;1.90;100.00
57801;BME280;43627;42.728;23.256;2022-12-18T07:10:52;96210.09;;;1.98;100.00
57801;BME280;43627;42.728;23.256;2022-12-18T07:13:22;96215.88;;;2.00;100.00
57801;BME280;43627;42.728;23.256;2022-12-18T07:15:49;96209.31;;;1.94;100.00
57801;BME280;43627;42.728;23.256;2022-12-18T07:18:15;96221.63;;;1.98;100.00
57801;BME280;43627;42.728;23.256;2022-12-18T07:20:42;96208.19;;;2.02;100.00
57801;BME280;43627;42.728;23.256;2022-12-18T07:23:11;96216.59;;;1.90;100.00
57801;BME280;43627;42.728;23.256;2022-12-18T07:25:38;96216.16;;;1.88;100.00
57801;BME280;43627;42.728;23.256;2022-12-18T07:28:05;96210.34;;;1.79;100.00
57801;BME280;43627;42.728;23.256;2022-12-18T07:30:37;96215.06;;;1.92;100.00
57801;BME280;43627;42.728;23.256;2022-12-18T07:33:04;96217.38;;;1.94;100.00
57801;BME280;43627;42.728;23.256;2022-12-18T07:35:32;96211.22;;;1.90;100.00
57801;BME280;43627;42.728;23.256;2022-12-18T07:37:59;96235.06;;;1.98;100.00
57801;BME280;43627;42.728;23.256;2022-12-18T07:40:28;96213.91;;;1.90;100.00
57801;BME280;43627;42.728;23.256;2022-12-18T07:42:55;96220.41;;;1.89;100.00
57801;BME280;43627;42.728;23.256;2022-12-18T07:45:21;96226.22;;;1.94;100.00
57801;BME280;43627;42.728;23.256;2022-12-18T07:47:48;96240.44;;;1.95;100.00
57801;BME280;43627;42.728;23.256;2022-12-18T07:50:15;96248.94;;;2.00;100.00
57801;BME280;43627;42.728;23.256;2022-12-18T07:52:42;96225.00;;;1.85;100.00
57801;BME280;43627;42.728;23.256;2022-12-18T07:55:08;96230.38;;;1.85;100.00
57801;BME280;43627;42.728;23.256;2022-12-18T07:57:35;96237.34;;;1.93;100.00
57801;BME280;43627;42.728;23.256;2022-12-18T08:00:22;96241.97;;;1.92;100.00
57801;BME280;43627;42.728;23.256;2022-12-18T08:02:49;96252.00;;;1.99;100.00
57801;BME280;43627;42.728;23.256;2022-12-18T08:05:16;96244.28;;;1.94;100.00
57801;BME280;43627;42.728;23.256;2022-12-18T08:07:43;96252.72;;;1.96;100.00
57801;BME280;43627;42.728;23.256;2022-12-18T08:10:09;96257.03;;;2.04;100.00
57801;BME280;43627;42.728;23.256;2022-12-18T08:12:36;96246.63;;;1.99;100.00
57801;BME280;43627;42.728;23.256;2022-12-18T08:15:03;96249.28;;;1.95;100.00
57801;BME280;43627;42.728;23.256;2022-12-18T08:17:30;96267.78;;;2.08;100.00
57801;BME280;43627;42.728;23.256;2022-12-18T08:19:57;96248.81;;;1.86;100.00
57801;BME280;43627;42.728;23.256;2022-12-18T08:22:24;96270.78;;;1.95;100.00
57801;BME280;43627;42.728;23.256;2022-12-18T08:24:51;96282.38;;;2.03;100.00
57801;BME280;43627;42.728;23.256;2022-12-18T08:27:18;96268.84;;;1.92;100.00
57801;BME280;43627;42.728;23.256;2022-12-18T08:30:00;96278.53;;;2.00;100.00
57801;BME280;43627;42.728;23.256;2022-12-18T08:32:28;96273.09;;;1.93;100.00
57801;BME280;43627;42.728;23.256;2022-12-18T08:34:54;96278.91;;;2.03;100.00
57801;BME280;43627;42.728;23.256;2022-12-18T08:37:21;96286.66;;;2.11;100.00
57801;BME280;43627;42.728;23.256;2022-12-18T08:39:48;96288.66;;;2.21;100.00
57801;BME280;43627;42.728;23.256;2022-12-18T08:42:14;96305.56;;;2.18;100.00
57801;BME280;43627;42.728;23.256;2022-12-18T08:45:00;96276.63;;;2.08;100.00
57801;BME280;43627;42.728;23.256;2022-12-18T08:47:27;96297.56;;;2.33;100.00
57801;BME280;43627;42.728;23.256;2022-12-18T08:49:54;96300.31;;;2.40;100.00
57801;BME280;43627;42.728;23.256;2022-12-18T08:52:21;96297.59;;;2.40;100.00
57801;BME280;43627;42.728;23.256;2022-12-18T08:54:48;96313.00;;;2.43;100.00
57801;BME280;43627;42.728;23.256;2022-12-18T08:57:14;96301.47;;;2.46;100.00
57801;BME280;43627;42.728;23.256;2022-12-18T08:59:42;96295.63;;;2.29;100.00
57801;BME280;43627;42.728;23.256;2022-12-18T09:02:10;96299.41;;;2.21;100.00
57801;BME280;43627;42.728;23.256;2022-12-18T09:04:37;96301.44;;;2.39;100.00
57801;BME280;43627;42.728;23.256;2022-12-18T09:07:07;96299.53;;;2.43;100.00
57801;BME280;43627;42.728;23.256;2022-12-18T09:09:33;96309.25;;;2.58;100.00
57801;BME280;43627;42.728;23.256;2022-12-18T09:12:00;96287.63;;;2.44;100.00
57801;BME280;43627;42.728;23.256;2022-12-18T09:14:27;96303.88;;;2.62;100.00
57801;BME280;43627;42.728;23.256;2022-12-18T09:16:53;96280.41;;;2.62;100.00
57801;BME280;43627;42.728;23.256;2022-12-18T09:19:20;96302.72;;;2.59;100.00
57801;BME280;43627;42.728;23.256;2022-12-18T09:21:47;96294.25;;;2.57;100.00
57801;BME280;43627;42.728;23.256;2022-12-18T09:24:14;96298.91;;;2.71;100.00
57801;BME280;43627;42.728;23.256;2022-12-18T09:26:42;96303.59;;;2.84;100.00
57801;BME280;43627;42.728;23.256;2022-12-18T09:29:14;96300.50;;;2.75;100.00
57801;BME280;43627;42.728;23.256;2022-12-18T09:31:44;96288.13;;;2.67;100.00
57801;BME280;43627;42.728;23.256;2022-12-18T09:34:11;96287.41;;;2.81;100.00
57801;BME280;43627;42.728;23.256;2022-12-18T09:36:37;96273.56;;;2.82;100.00
57801;BME280;43627;42.728;23.256;2022-12-18T09:39:04;96286.19;;;2.61;100.00
57801;BME280;43627;42.728;23.256;2022-12-18T09:41:54;96282.28;;;2.51;100.00
57801;BME280;43627;42.728;23.256;2022-12-18T09:44:33;96298.91;;;2.74;100.00
57801;BME280;43627;42.728;23.256;2022-12-18T09:47:15;96290.06;;;2.67;100.00
57801;BME280;43627;42.728;23.256;2022-12-18T09:49:45;96278.13;;;2.68;100.00
57801;BME280;43627;42.728;23.256;2022-12-18T09:52:35;96287.44;;;2.84;100.00
57801;BME280;43627;42.728;23.256;2022-12-18T09:55:28;96299.00;;;2.89;100.00
57801;BME280;43627;42.728;23.256;2022-12-18T09:58:19;96294.00;;;2.91;100.00
57801;BME280;43627;42.728;23.256;2022-12-18T10:00:51;96297.06;;;2.93;100.00
57801;BME280;43627;42.728;23.256;2022-12-18T10:03:20;96294.00;;;2.87;100.00
57801;BME280;43627;42.728;23.256;2022-12-18T10:14:23;96289.84;;;3.18;100.00
57801;BME280;43627;42.728;23.256;2022-12-18T10:17:07;96287.50;;;3.09;100.00
57801;BME280;43627;42.728;23.256;2022-12-18T10:25:05;96297.22;;;3.46;100.00
57801;BME280;43627;42.728;23.256;2022-12-18T10:27:33;96291.06;;;3.46;100.00
57801;BME280;43627;42.728;23.256;2022-12-18T10:30:01;96303.00;;;3.44;100.00
57801;BME280;43627;42.728;23.256;2022-12-18T10:32:30;96276.81;;;3.38;100.00
57801;BME280;43627;42.728;23.256;2022-12-18T10:34:57;96299.91;;;3.50;100.00
57801;BME280;43627;42.728;23.256;2022-12-18T10:37:29;96308.00;;;3.50;100.00
57801;BME280;43627;42.728;23.256;2022-12-18T10:40:15;96296.47;;;3.60;100.00
57801;BME280;43627;42.728;23.256;2022-12-18T10:43:03;96297.25;;;3.60;100.00
57801;BME280;43627;42.728;23.256;2022-12-18T10:45:30;96295.72;;;3.66;100.00
57801;BME280;43627;42.728;23.256;2022-12-18T10:47:57;96292.25;;;3.66;100.00
57801;BME280;43627;42.728;23.256;2022-12-18T10:53:06;96287.22;;;3.57;100.00
57801;BME280;43627;42.728;23.256;2022-12-18T10:55:39;96290.72;;;3.65;100.00
57801;BME280;43627;42.728;23.256;2022-12-18T10:58:21;96304.19;;;3.61;100.00
57801;BME280;43627;42.728;23.256;2022-12-18T11:01:11;96296.88;;;3.65;100.00
57801;BME280;43627;42.728;23.256;2022-12-18T11:03:42;96269.50;;;3.49;100.00
57801;BME280;43627;42.728;23.256;2022-12-18T11:06:15;96289.56;;;3.62;100.00
57801;BME280;43627;42.728;23.256;2022-12-18T11:08:44;96298.03;;;3.68;100.00
57801;BME280;43627;42.728;23.256;2022-12-18T11:11:22;96286.47;;;3.57;100.00
57801;BME280;43627;42.728;23.256;2022-12-18T11:14:01;96294.94;;;3.62;100.00
57801;BME280;43627;42.728;23.256;2022-12-18T11:16:32;96284.16;;;3.62;100.00
57801;BME280;43627;42.728;23.256;2022-12-18T11:21:41;96271.44;;;3.56;100.00
57801;BME280;43627;42.728;23.256;2022-12-18T11:24:20;96281.06;;;3.64;100.00
57801;BME280;43627;42.728;23.256;2022-12-18T11:26:49;96297.28;;;3.71;100.00
57801;BME280;43627;42.728;23.256;2022-12-18T11:29:38;96305.00;;;3.80;100.00
57801;BME280;43627;42.728;23.256;2022-12-18T11:34:45;96304.94;;;3.69;100.00
57801;BME280;43627;42.728;23.256;2022-12-18T11:37:15;96295.72;;;3.63;100.00
57801;BME280;43627;42.728;23.256;2022-12-18T11:40:03;96274.91;;;3.53;100.00
57801;BME280;43627;42.728;23.256;2022-12-18T11:42:44;96307.28;;;3.53;100.00
57801;BME280;43627;42.728;23.256;2022-12-18T11:48:01;96279.09;;;3.39;100.00
57801;BME280;43627;42.728;23.256;2022-12-18T11:53:18;96295.69;;;3.49;100.00
57801;BME280;43627;42.728;23.256;2022-12-18T12:01:12;96291.06;;;3.60;100.00
57801;BME280;43627;42.728;23.256;2022-12-18T12:04:17;96296.47;;;3.56;100.00
57801;BME280;43627;42.728;23.256;2022-12-18T12:17:57;96294.19;;;3.65;100.00
57801;BME280;43627;42.728;23.256;2022-12-18T12:23:11;96296.13;;;3.72;100.00
57801;BME280;43627;42.728;23.256;2022-12-18T12:26:06;96298.81;;;3.90;100.00
57801;BME280;43627;42.728;23.256;2022-12-18T12:39:51;96281.84;;;3.64;100.00
57801;BME280;43627;42.728;23.256;2022-12-18T12:42:38;96303.81;;;3.88;100.00
57801;BME280;43627;42.728;23.256;2022-12-18T12:45:36;96300.75;;;3.89;100.00
57801;BME280;43627;42.728;23.256;2022-12-18T12:48:06;96306.91;;;3.79;100.00
57801;BME280;43627;42.728;23.256;2022-12-18T12:50:37;96319.22;;;3.73;100.00
57801;BME280;43627;42.728;23.256;2022-12-18T12:53:21;96289.13;;;3.46;100.00
57801;BME280;43627;42.728;23.256;2022-12-18T12:55:50;96292.59;;;3.47;100.00
57801;BME280;43627;42.728;23.256;2022-12-18T13:07:15;96327.63;;;3.29;100.00
57801;BME280;43627;42.728;23.256;2022-12-18T13:15:46;96285.91;;;2.91;100.00
57801;BME280;43627;42.728;23.256;2022-12-18T13:18:19;96335.34;;;3.37;100.00
57801;BME280;43627;42.728;23.256;2022-12-18T13:21:01;96341.91;;;3.33;100.00
57801;BME280;43627;42.728;23.256;2022-12-18T13:23:31;96332.63;;;3.30;100.00
57801;BME280;43627;42.728;23.256;2022-12-18T13:37:33;96328.78;;;3.28;100.00
57801;BME280;43627;42.728;23.256;2022-12-18T13:39:43;96348.84;;;3.44;100.00
57801;BME280;43627;42.728;23.256;2022-12-18T13:44:58;96339.13;;;3.22;100.00
57801;BME280;43627;42.728;23.256;2022-12-18T13:47:32;96354.22;;;3.41;100.00
57801;BME280;43627;42.728;23.256;2022-12-18T13:50:11;96357.25;;;3.25;100.00
57801;BME280;43627;42.728;23.256;2022-12-18T13:52:47;96287.84;;;2.86;100.00
57801;BME280;43627;42.728;23.256;2022-12-18T13:55:19;96362.66;;;3.25;100.00
57801;BME280;43627;42.728;23.256;2022-12-18T13:57:47;96366.50;;;3.28;100.00
57801;BME280;43627;42.728;23.256;2022-12-18T14:00:27;96366.91;;;3.30;100.00
57801;BME280;43627;42.728;23.256;2022-12-18T14:02:56;96361.91;;;3.32;100.00
57801;BME280;43627;42.728;23.256;2022-12-18T14:05:35;96327.91;;;3.02;100.00
57801;BME280;43627;42.728;23.256;2022-12-18T14:08:09;96337.94;;;3.05;100.00
57801;BME280;43627;42.728;23.256;2022-12-18T14:10:41;96381.13;;;3.23;100.00
57801;BME280;43627;42.728;23.256;2022-12-18T14:13:39;96374.97;;;3.23;100.00
57801;BME280;43627;42.728;23.256;2022-12-18T14:16:13;96361.06;;;3.13;100.00
57801;BME280;43627;42.728;23.256;2022-12-18T14:18:48;96364.06;;;2.98;100.00
57801;BME280;43627;42.728;23.256;2022-12-18T14:21:28;96367.19;;;3.03;100.00
57801;BME280;43627;42.728;23.256;2022-12-18T14:26:35;96378.75;;;3.11;100.00
57801;BME280;43627;42.728;23.256;2022-12-18T14:32:24;96384.13;;;3.04;100.00
57801;BME280;43627;42.728;23.256;2022-12-18T14:34:52;96379.44;;;2.94;100.00
57801;BME280;43627;42.728;23.256;2022-12-18T14:37:25;96387.16;;;2.95;100.00
57801;BME280;43627;42.728;23.256;2022-12-18T14:42:20;96375.19;;;2.93;100.00
57801;BME280;43627;42.728;23.256;2022-12-18T14:44:47;96379.47;;;3.01;100.00
57801;BME280;43627;42.728;23.256;2022-12-18T14:47:34;96391.78;;;2.95;100.00
57801;BME280;43627;42.728;23.256;2022-12-18T14:50:01;96373.25;;;2.86;100.00
57801;BME280;43627;42.728;23.256;2022-12-18T14:52:29;96384.03;;;2.90;100.00
57801;BME280;43627;42.728;23.256;2022-12-18T14:54:58;96393.28;;;2.85;100.00
57801;BME280;43627;42.728;23.256;2022-12-18T14:57:30;96385.19;;;2.89;100.00
57801;BME280;43627;42.728;23.256;2022-12-18T15:00:07;96402.91;;;2.90;100.00
57801;BME280;43627;42.728;23.256;2022-12-18T15:02:34;96392.53;;;2.92;100.00
57801;BME280;43627;42.728;23.256;2022-12-18T15:05:05;96400.59;;;2.84;100.00
57801;BME280;43627;42.728;23.256;2022-12-18T15:07:49;96404.78;;;2.78;100.00
57801;BME280;43627;42.728;23.256;2022-12-18T15:10:45;96376.69;;;2.79;100.00
57801;BME280;43627;42.728;23.256;2022-12-18T15:13:08;96389.34;;;2.72;100.00